• Join FlightAware (Why Join?)
  • Login
  • US Flag 
01:19AM EDT


 

Airport Tracker/Info


-or-


 

Live Flight TrackerFlight Track Log ✈ DAL1550 ✈ 23-Apr-2013 ✈ KLAS - KMSP

Flight Track Log - Related Links

Times and Time Zones

All times are in EDT time to prevent confusion due to time zone crossing. See the DAL1550 flight status page for this flight to view local times or setup timezone preferences in your user account.

Time Position Orientation Groundspeed Altitude Reporting Facility
EDT Latitude Longitude Course Direction KTS MPH feet Rate Location/Type
10:27AM 36.0758 -115.1072 39° Northeast 193 222 3,300  Level Los Angeles Center
10:27AM 36.0744 -115.0517 92° East 227 261 4,500 1,860 Climbing Los Angeles Center
10:29AM 36.0750 -114.9450 90° East 282 325 6,800 2,220 Climbing Los Angeles Center
10:30AM 36.1833 -114.5069 90° East  Level FlightAware Approximate
10:30AM 36.0903 -114.8453 79° East 286 329 9,600  Level Los Angeles Center
10:31AM 36.1833 -114.3388 90° East  Level FlightAware Approximate
10:31AM 36.1122 -114.7403 75° East 307 353 11,100  Level Los Angeles Center
10:32AM 36.2227 -114.1940 39° Northeast  Level FlightAware Approximate
10:32AM 36.1336 -114.6047 79° East 395 455 12,400  Level Los Angeles Center
10:33AM 36.1606 -114.4317 79° East 426 490 15,000 2,340 Climbing Los Angeles Center
10:34AM 36.1858 -114.2844 78° East 435 501 17,300 1,860 Climbing Los Angeles Center
10:35AM 36.2575 -114.1633 54° Northeast 444 511 18,900 1,560 Climbing Los Angeles Center
10:36AM 36.3422 -114.0542 46° Northeast 442 509 20,500 1,560 Climbing Los Angeles Center
10:37AM 36.3983 -113.9033 65° Northeast 483 556 22,200 1,200 Climbing Los Angeles Center
10:38AM 36.4325 -113.7381 76° East 496 571 23,100 360 Climbing Los Angeles Center
10:39AM 36.4722 -113.5683 74° East 506 582 23,000 -60 Descending Los Angeles Center
10:40AM 36.5114 -113.3950 74° East 506 582 23,000 480 Level Los Angeles Center
10:41AM 36.5744 -113.2025 68° East 506 582 24,100 1,140 Climbing Los Angeles Center
10:42AM 36.6519 -113.0589 56° Northeast 504 580 25,400 1,440 Climbing Los Angeles Center
10:43AM 36.7328 -112.9172 55° Northeast 504 580 27,100 1,260 Climbing Los Angeles Center
10:44AM 36.8139 -112.7778 54° Northeast 502 578 28,100 900 Climbing Los Angeles Center
10:45AM 36.8953 -112.6350 54° Northeast 506 582 29,000 480 Climbing Los Angeles Center
10:46AM 36.9781 -112.4917 54° Northeast 510 587 29,200 660 Climbing Los Angeles Center
10:47AM 37.0783 -112.3144 55° Northeast 518 596 30,400 840 Climbing Los Angeles Center
10:48AM 37.1617 -112.1686 54° Northeast 519 597 31,000 240 Climbing Los Angeles Center
10:49AM 37.2447 -112.0186 55° Northeast 524 603 31,000  Level Los Angeles Center
10:50AM 37.3297 -111.8694 54° Northeast 527 606 31,000  Level Los Angeles Center
10:51AM 37.4128 -111.7181 55° Northeast 529 609 31,000  Level Los Angeles Center
10:52AM 37.4783 -111.5967 56° Northeast 528 608 31,000  Level Salt Lake Center
10:52AM 37.5119 -111.5344 56° Northeast 532 612 31,000  Level Denver Center
10:53AM 37.5953 -111.3822 55° Northeast 532 612 31,000  Level Denver Center
10:54AM 37.6456 -111.2900 55° Northeast 533 613 31,000  Level Salt Lake Center
10:55AM 37.7300 -111.1367 55° Northeast 534 615 31,000  Level Salt Lake Center
10:55AM 37.7786 -111.0444 56° Northeast 529 609 31,000  Level Denver Center
10:57AM 37.8611 -110.8914 56° Northeast 529 609 31,000  Level Denver Center
10:58AM 37.9417 -110.7386 56° Northeast 526 605 31,000  Level Denver Center
10:59AM 38.0261 -110.5806 56° Northeast 526 605 31,000  Level Denver Center
11:00AM 38.1183 -110.4081 56° Northeast 527 606 31,000  Level Denver Center
11:01AM 38.1947 -110.2606 57° Northeast 525 604 31,000  Level Denver Center
11:02AM 38.2722 -110.1125 56° Northeast 527 606 31,000  Level Denver Center
11:03AM 38.3628 -109.9381 56° Northeast 530 610 31,000  Level Denver Center
11:04AM 38.4406 -109.7872 57° Northeast 532 612 31,000  Level Denver Center
11:05AM 38.5308 -109.6156 56° Northeast 524 603 31,000  Level Denver Center
11:06AM 38.6067 -109.4644 57° Northeast 528 608 31,000  Level Denver Center
11:07AM 38.6961 -109.2908 57° Northeast 524 603 31,000  Level Denver Center
11:08AM 38.7733 -109.1417 56° Northeast 525 604 31,000  Level Denver Center
11:09AM 38.8633 -108.9656 57° Northeast 529 609 31,000  Level Denver Center
11:10AM 38.9394 -108.8125 57° Northeast 533 613 31,000  Level Denver Center
11:11AM 39.0272 -108.6375 57° Northeast 525 604 31,000  Level Denver Center
11:12AM 39.1003 -108.4911 57° Northeast 511 588 31,000  Level Denver Center
11:13AM 39.1856 -108.3194 57° Northeast 513 590 31,000  Level Denver Center
11:14AM 39.2600 -108.1703 57° Northeast 519 597 31,000  Level Denver Center
11:15AM 39.3469 -107.9936 57° Northeast 524 603 31,000  Level Denver Center
11:16AM 39.4208 -107.8403 58° Northeast 525 604 31,000  Level Denver Center
11:17AM 39.5075 -107.6611 58° Northeast 527 606 31,000  Level Denver Center
11:18AM 39.5825 -107.5069 58° Northeast 530 610 31,000  Level Denver Center
11:19AM 39.6681 -107.3275 58° Northeast 527 606 31,000  Level Denver Center
11:20AM 39.7486 -107.1594 58° Northeast 531 611 31,000  Level Denver Center
11:21AM 39.8269 -106.9953 58° Northeast 529 609 31,000  Level Denver Center
11:22AM 39.9064 -106.8306 58° Northeast 531 611 31,000  Level Denver Center
11:23AM 39.9897 -106.6533 58° Northeast 528 608 31,000  Level Denver Center
11:24AM 40.0606 -106.5003 59° Northeast 524 603 31,000  Level Denver Center
11:25AM 40.1381 -106.3353 58° Northeast 525 604 31,000  Level Denver Center
11:27AM 40.2150 -106.1703 59° Northeast 524 603 31,000  Level Denver Center
11:28AM 40.3050 -105.9767 59° Northeast 527 606 31,000  Level Denver Center
11:29AM 40.3794 -105.8103 60° Northeast 523 602 31,000  Level Denver Center
11:30AM 40.4547 -105.6433 59° Northeast 525 604 31,000  Level Denver Center
11:31AM 40.5297 -105.4789 59° Northeast 520 598 31,000  Level Denver Center
11:32AM 40.6039 -105.3128 60° Northeast 519 597 31,000  Level Denver Center
11:33AM 40.6781 -105.1472 59° Northeast 520 598 31,000  Level Denver Center
11:34AM 40.7517 -104.9850 59° Northeast 512 589 31,000  Level Denver Center
11:35AM 40.8239 -104.8156 61° Northeast 518 596 31,000  Level Denver Center
11:36AM 40.9078 -104.6269 59° Northeast 508 585 31,000  Level Denver Center
11:37AM 40.9806 -104.4611 60° Northeast 513 590 31,000  Level Denver Center
11:38AM 41.0558 -104.2878 60° Northeast 515 593 31,000  Level Denver Center
11:39AM 41.1239 -104.1317 60° Northeast 514 592 31,000  Level Denver Center
11:40AM 41.2039 -103.9464 60° Northeast 519 597 31,000  Level Denver Center
11:41AM 41.2708 -103.7892 60° Northeast 515 593 31,000  Level Denver Center
11:42AM 41.3481 -103.6067 61° Northeast 509 586 31,000  Level Denver Center
11:43AM 41.4142 -103.4497 61° Northeast 509 586 31,000  Level Denver Center
11:44AM 41.4811 -103.2919 60° Northeast 512 589 31,000  Level Denver Center
11:45AM 41.5592 -103.1078 60° Northeast 513 590 31,000  Level Denver Center
11:46AM 41.6253 -102.9475 61° Northeast 516 594 31,000  Level Denver Center
11:47AM 41.7014 -102.7631 61° Northeast 512 589 31,000  Level Denver Center
11:48AM 41.7672 -102.6053 61° Northeast 509 586 31,000  Level Denver Center
11:49AM 41.8433 -102.4178 61° Northeast 513 590 31,000  Level Denver Center
11:50AM 41.9078 -102.2572 62° Northeast 512 589 31,000  Level Denver Center
11:51AM 41.9800 -102.0811 61° Northeast 512 589 31,000  Level Denver Center
11:52AM 42.0561 -101.8919 61° Northeast 515 593 31,000  Level Denver Center
11:53AM 42.1208 -101.7303 62° Northeast 512 589 31,000  Level Denver Center
11:54AM 42.1947 -101.5417 62° Northeast 510 587 31,000  Level Denver Center
11:55AM 42.2597 -101.3789 62° Northeast 513 590 31,000  Level Denver Center
11:57AM 42.3333 -101.1892 62° Northeast 509 586 31,000  Level Denver Center
11:58AM 42.3975 -101.0247 62° Northeast 514 592 31,000  Level Denver Center
11:59AM 42.4608 -100.8600 62° Northeast 514 592 31,000  Level Denver Center
12:00PM 42.5353 -100.6664 62° Northeast 516 594 31,000  Level Denver Center
12:01PM 42.5997 -100.5003 62° Northeast 519 597 31,000  Level Denver Center
12:01PM 42.6519 -100.3658 62° Northeast 518 596 31,000  Level Minneapolis Center
12:02PM 42.6733 -100.3061 64° Northeast 518 596 31,000  Level Denver Center
12:03PM 42.7386 -100.1347 63° Northeast 521 600 31,000  Level Denver Center
12:04PM 42.8039 -99.9619 63° Northeast 517 595 31,000  Level Denver Center
12:05PM 42.8692 -99.7847 63° Northeast 522 601 31,000  Level Denver Center
12:05PM 42.9147 -99.6633 63° Northeast 518 596 31,000  Level Minneapolis Center
12:06PM 42.9797 -99.4875 63° Northeast 518 596 31,000  Level Minneapolis Center
12:07PM 43.0436 -99.3131 63° Northeast 514 592 31,000  Level Minneapolis Center
12:09PM 43.1086 -99.1344 63° Northeast 518 596 31,000  Level Minneapolis Center
12:10PM 43.1842 -98.9264 63° Northeast 515 593 31,000  Level Minneapolis Center
12:11PM 43.2467 -98.7517 64° Northeast 513 590 31,000  Level Minneapolis Center
12:12PM 43.3100 -98.5761 64° Northeast 513 590 31,000  Level Minneapolis Center
12:13PM 43.3728 -98.4014 64° Northeast 512 589 31,000  Level Minneapolis Center
12:14PM 43.4342 -98.2250 64° Northeast 513 590 31,000  Level Minneapolis Center
12:15PM 43.4964 -98.0486 64° Northeast 513 590 31,000  Level Minneapolis Center
12:16PM 43.5700 -97.8353 64° Northeast 515 593 31,000  Level Minneapolis Center
12:17PM 43.6325 -97.6572 64° Northeast 516 594 31,000  Level Minneapolis Center
12:18PM 43.6933 -97.4769 65° Northeast 519 597 31,000  Level Minneapolis Center
12:19PM 43.7569 -97.2947 64° Northeast 524 603 31,000  Level Minneapolis Center
12:20PM 43.8058 -97.1497 65° Northeast 524 603 31,000  Level Minneapolis Center
12:21PM 43.8817 -96.9297 64° Northeast 528 608 31,000  Level Minneapolis Center
12:22PM 43.9422 -96.7458 65° Northeast 527 606 31,000  Level Minneapolis Center
12:23PM 44.0164 -96.5253 65° Northeast 528 608 31,000 -420 Level Minneapolis Center
12:24PM 44.0769 -96.3422 65° Northeast 527 606 30,200 -780 Descending Minneapolis Center
12:25PM 44.1233 -96.2008 65° Northeast 523 602 29,500 -1,020 Descending Minneapolis Center
12:26PM 44.1889 -95.9981 66° East 506 582 28,200 -1,560 Descending Minneapolis Center
12:27PM 44.2572 -95.7894 65° Northeast 498 573 26,300 -1,440 Descending Minneapolis Center
12:28PM 44.3139 -95.6150 66° East 498 573 25,300 -960 Descending Minneapolis Center
12:29PM 44.3683 -95.4428 66° East 489 563 24,400 -840 Descending Minneapolis Center
12:30PM 44.4217 -95.2725 66° East 481 554 23,600 -1,140 Descending Minneapolis Center
12:31PM 44.4728 -95.1144 66° East 458 527 22,100 -1,740 Descending Minneapolis Center
12:32PM 44.5094 -94.9569 72° East 434 499 20,100 -2,280 Descending Minneapolis Center
12:33PM 44.5289 -94.7994 80° East 416 479 17,500 -2,400 Descending Minneapolis Center
12:34PM 44.5439 -94.6275 83° East 413 475 15,200 -1,800 Descending Minneapolis Center
12:35PM 44.5572 -94.4722 83° East 405 466 13,800 -1,500 Descending Minneapolis Center
12:36PM 44.5714 -94.3708 79° East 393 452 12,900 -1,260 Descending FAA TRACON SMA TRACON (SMA)
12:36PM 44.5786 -94.3253 77° East 389 448 12,700 -900 Descending FAA TRACON SMA TRACON (SMA)
12:37PM 44.5989 -94.2767 60° Northeast 379 436 12,300 -1,320 Descending FAA TRACON SMA TRACON (SMA)
12:37PM 44.6197 -94.2436 48° Northeast 372 428 11,800 -1,320 Descending FAA TRACON SMA TRACON (SMA)
12:37PM 44.6442 -94.2164 38° Northeast 368 423 11,400 -1,260 Descending FAA TRACON SMA TRACON (SMA)
12:38PM 44.6747 -94.1822 38° Northeast 363 418 11,000 -840 Descending FAA TRACON SMA TRACON (SMA)
12:38PM 44.6947 -94.1517 47° Northeast 357 411 10,900 -180 Descending FAA TRACON SMA TRACON (SMA)
12:38PM 44.7072 -94.1131 65° Northeast 352 405 10,900  Level FAA TRACON SMA TRACON (SMA)
12:39PM 44.7172 -94.0614 75° East 357 411 10,900  Level FAA TRACON SMA TRACON (SMA)
12:39PM 44.7267 -94.0203 72° East 359 413 10,900  Level FAA TRACON SMA TRACON (SMA)
12:39PM 44.7350 -93.9789 74° East 360 414 10,900  Level FAA TRACON SMA TRACON (SMA)
12:40PM 44.7467 -93.9281 72° East 354 407 10,900  Level FAA TRACON SMA TRACON (SMA)
12:40PM 44.7550 -93.8869 74° East 354 407 10,900  Level FAA TRACON SMA TRACON (SMA)
12:40PM 44.7644 -93.8456 72° East 359 413 10,900  Level FAA TRACON SMA TRACON (SMA)
12:41PM 44.7756 -93.7944 73° East 359 413 10,900  Level FAA TRACON SMA TRACON (SMA)
12:41PM 44.7847 -93.7525 73° East 361 415 10,900  Level FAA TRACON SMA TRACON (SMA)
12:41PM 44.7931 -93.7108 74° East 363 418 10,900  Level FAA TRACON SMA TRACON (SMA)
12:42PM 44.8053 -93.6589 72° East 363 418 10,900 -300 Level FAA TRACON SMA TRACON (SMA)
12:42PM 44.8131 -93.6186 75° East 352 405 10,700 -780 Descending FAA TRACON SMA TRACON (SMA)
12:42PM 44.8214 -93.5803 73° East 337 388 10,400 -900 Descending FAA TRACON SMA TRACON (SMA)
12:43PM 44.8311 -93.5356 73° East 317 365 10,100 -600 Descending FAA TRACON SMA TRACON (SMA)
12:43PM 44.8394 -93.5017 71° East 302 348 10,000 -900 Descending FAA TRACON SMA TRACON (SMA)
12:43PM 44.8461 -93.4686 74° East 289 333 9,500 -1,680 Descending FAA TRACON SMA TRACON (SMA)
12:44PM 44.8550 -93.4269 73° East 285 328 8,900 -1,740 Descending FAA TRACON SMA TRACON (SMA)
12:44PM 44.8619 -93.3947 73° East 282 325 8,400 -1,440 Descending FAA TRACON SMA TRACON (SMA)
12:44PM 44.8644 -93.3614 84° East 284 327 8,000 -720 Descending FAA TRACON SMA TRACON (SMA)
12:45PM 44.8489 -93.3256 121° Southeast 294 338 7,900 -180 Descending FAA TRACON SMA TRACON (SMA)
12:45PM 44.8197 -93.3094 159° South 301 346 7,900  Level FAA TRACON SMA TRACON (SMA)
12:45PM 44.7950 -93.3089 179° South 292 336 7,900 -540 Level FAA TRACON SMA TRACON (SMA)
12:46PM 44.7711 -93.3083 179° South 283 326 7,600 -960 Descending FAA TRACON SMA TRACON (SMA)
12:46PM 44.7481 -93.3086 180° South 271 312 7,300 -1,080 Descending FAA TRACON SMA TRACON (SMA)
12:46PM 44.7264 -93.3083 179° South 257 296 6,900 -1,500 Descending FAA TRACON SMA TRACON (SMA)
12:47PM 44.6997 -93.3092 181° South 248 285 6,300 -1,500 Descending FAA TRACON SMA TRACON (SMA)
12:47PM 44.6792 -93.3094 181° South 244 281 5,900 -600 Descending FAA TRACON SMA TRACON (SMA)
12:47PM 44.6600 -93.3097 181° South 232 267 5,900  Level FAA TRACON SMA TRACON (SMA)
12:48PM 44.6369 -93.3108 182° South 216 249 5,900  Level FAA TRACON SMA TRACON (SMA)
12:48PM 44.6183 -93.3108 180° South 216 249 5,900  Level FAA TRACON SMA TRACON (SMA)
12:48PM 44.5950 -93.3119 182° South 217 250 5,900  Level FAA TRACON SMA TRACON (SMA)
12:49PM 44.5769 -93.3128 182° South 215 247 5,900  Level FAA TRACON SMA TRACON (SMA)
12:49PM 44.5581 -93.3139 182° South 216 249 5,900  Level FAA TRACON SMA TRACON (SMA)
12:49PM 44.5364 -93.3139 180° South 207 238 5,900  Level FAA TRACON SMA TRACON (SMA)
12:50PM 44.5194 -93.3144 181° South 198 228 5,900  Level FAA TRACON SMA TRACON (SMA)
12:50PM 44.5047 -93.3050 155° Southeast 199 229 5,900  Level FAA TRACON SMA TRACON (SMA)
12:50PM 44.4997 -93.2831 108° East 210 242 5,900  Level FAA TRACON SMA TRACON (SMA)
12:51PM 44.5000 -93.2550 89° East 193 222 5,900  Level FAA TRACON SMA TRACON (SMA)
12:51PM 44.5003 -93.2333 89° East 184 212 5,900  Level FAA TRACON SMA TRACON (SMA)
12:51PM 44.5114 -93.2122 54° Northeast 188 216 5,900  Level FAA TRACON SMA TRACON (SMA)
12:52PM 44.5253 -93.2033 25° Northeast 183 211 5,900  Level FAA TRACON SMA TRACON (SMA)
12:52PM 44.5397 -93.1917 30° Northeast 188 216 5,900 -180 Level FAA TRACON SMA TRACON (SMA)
12:52PM 44.5542 -93.1806 29° Northeast 190 219 5,800 -960 Descending FAA TRACON SMA TRACON (SMA)
12:53PM 44.5719 -93.1686 26° Northeast 188 216 5,300 -1,680 Descending FAA TRACON SMA TRACON (SMA)
12:53PM 44.5864 -93.1639 13° North 185 213 4,700 -1,500 Descending FAA TRACON SMA TRACON (SMA)
12:53PM 44.6011 -93.1681 349° North 178 205 4,300 -1,200 Descending FAA TRACON SMA TRACON (SMA)
12:54PM 44.6200 -93.1719 352° North 177 204 3,900 -600 Descending FAA TRACON SMA TRACON (SMA)
12:54PM 44.6350 -93.1764 348° North 179 206 3,900  Level FAA TRACON SMA TRACON (SMA)
12:54PM 44.6539 -93.1811 350° North 179 206 3,900  Level FAA TRACON SMA TRACON (SMA)
12:55PM 44.6689 -93.1850 350° North 176 203 3,900  Level FAA TRACON SMA TRACON (SMA)
12:55PM 44.6836 -93.1883 351° North 177 204 3,900  Level FAA TRACON SMA TRACON (SMA)
12:55PM 44.7019 -93.1936 348° North 175 201 3,900  Level FAA TRACON SMA TRACON (SMA)
12:56PM 44.7164 -93.1969 351° North 171 197 3,900 -480 Level FAA TRACON SMA TRACON (SMA)
12:56PM 44.7306 -93.2008 349° North 168 193 3,600 -900 Descending FAA TRACON SMA TRACON (SMA)
12:56PM 44.7447 -93.2047 349° North 167 192 3,300 -900 Descending FAA TRACON SMA TRACON (SMA)